sensor_id;sensor_type;location;lat;lon;timestamp;pressure;altitude;pressure_sealevel;temperature;humidity
11525;BME280;5819;49.648;8.330;2023-02-16T00:01:24;101570.84;;;1.52;100.00
11525;BME280;5819;49.648;8.330;2023-02-16T00:03:54;101575.00;;;1.46;100.00
11525;BME280;5819;49.648;8.330;2023-02-16T00:06:22;101579.28;;;1.47;100.00
11525;BME280;5819;49.648;8.330;2023-02-16T00:08:51;101586.16;;;1.48;100.00
11525;BME280;5819;49.648;8.330;2023-02-16T00:11:23;101567.28;;;1.46;100.00
11525;BME280;5819;49.648;8.330;2023-02-16T00:14:11;101565.53;;;1.41;100.00
11525;BME280;5819;49.648;8.330;2023-02-16T00:16:41;101561.28;;;1.42;100.00
11525;BME280;5819;49.648;8.330;2023-02-16T00:19:16;101557.88;;;1.45;100.00
11525;BME280;5819;49.648;8.330;2023-02-16T00:21:44;101550.19;;;1.43;100.00
11525;BME280;5819;49.648;8.330;2023-02-16T00:24:13;101549.38;;;1.49;100.00
11525;BME280;5819;49.648;8.330;2023-02-16T00:26:41;101552.91;;;1.55;100.00
11525;BME280;5819;49.648;8.330;2023-02-16T00:29:16;101551.94;;;1.49;100.00
11525;BME280;5819;49.648;8.330;2023-02-16T00:31:47;101553.75;;;1.54;100.00
11525;BME280;5819;49.648;8.330;2023-02-16T00:34:37;101573.25;;;1.45;100.00
11525;BME280;5819;49.648;8.330;2023-02-16T00:37:08;101571.44;;;1.36;100.00
11525;BME280;5819;49.648;8.330;2023-02-16T00:39:37;101571.38;;;1.31;100.00
11525;BME280;5819;49.648;8.330;2023-02-16T00:42:17;101565.47;;;1.37;100.00
11525;BME280;5819;49.648;8.330;2023-02-16T00:44:47;101565.38;;;1.32;100.00
11525;BME280;5819;49.648;8.330;2023-02-16T00:47:19;101561.91;;;1.29;100.00
11525;BME280;5819;49.648;8.330;2023-02-16T00:49:50;101562.72;;;1.25;100.00
11525;BME280;5819;49.648;8.330;2023-02-16T00:52:31;101560.28;;;1.34;100.00
11525;BME280;5819;49.648;8.330;2023-02-16T00:55:01;101555.13;;;1.31;100.00
11525;BME280;5819;49.648;8.330;2023-02-16T00:57:31;101547.53;;;1.37;100.00
11525;BME280;5819;49.648;8.330;2023-02-16T01:00:03;101552.66;;;1.37;100.00
11525;BME280;5819;49.648;8.330;2023-02-16T01:02:33;101550.13;;;1.38;100.00
11525;BME280;5819;49.648;8.330;2023-02-16T01:05:01;101552.72;;;1.41;100.00
11525;BME280;5819;49.648;8.330;2023-02-16T01:07:29;101549.28;;;1.41;100.00
11525;BME280;5819;49.648;8.330;2023-02-16T01:10:16;101559.56;;;1.42;100.00
11525;BME280;5819;49.648;8.330;2023-02-16T01:13:01;101564.66;;;1.39;100.00
11525;BME280;5819;49.648;8.330;2023-02-16T01:15:29;101560.41;;;1.40;100.00
11525;BME280;5819;49.648;8.330;2023-02-16T01:17:59;101564.56;;;1.32;100.00
11525;BME280;5819;49.648;8.330;2023-02-16T01:20:27;101559.44;;;1.32;100.00
11525;BME280;5819;49.648;8.330;2023-02-16T01:22:55;101554.31;;;1.33;100.00
11525;BME280;5819;49.648;8.330;2023-02-16T01:25:23;101557.66;;;1.29;100.00
11525;BME280;5819;49.648;8.330;2023-02-16T01:27:51;101557.63;;;1.26;100.00
11525;BME280;5819;49.648;8.330;2023-02-16T01:30:21;101559.44;;;1.33;100.00
11525;BME280;5819;49.648;8.330;2023-02-16T01:32:50;101559.47;;;1.36;100.00
11525;BME280;5819;49.648;8.330;2023-02-16T01:35:21;101554.34;;;1.35;100.00
11525;BME280;5819;49.648;8.330;2023-02-16T01:37:50;101555.13;;;1.32;100.00
11525;BME280;5819;49.648;8.330;2023-02-16T01:40:35;101547.44;;;1.32;100.00
11525;BME280;5819;49.648;8.330;2023-02-16T01:43:10;101549.03;;;1.23;100.00
11525;BME280;5819;49.648;8.330;2023-02-16T01:45:46;101543.09;;;1.24;100.00
11525;BME280;5819;49.648;8.330;2023-02-16T01:48:20;101534.50;;;1.22;100.00
11525;BME280;5819;49.648;8.330;2023-02-16T01:50:54;101534.41;;;1.17;100.00
11525;BME280;5819;49.648;8.330;2023-02-16T01:53:29;101538.69;;;1.15;100.00
11525;BME280;5819;49.648;8.330;2023-02-16T01:56:01;101541.13;;;1.08;100.00
11525;BME280;5819;49.648;8.330;2023-02-16T01:58:34;101531.75;;;1.10;100.00
11525;BME280;5819;49.648;8.330;2023-02-16T02:01:41;101523.00;;;0.97;100.00
11525;BME280;5819;49.648;8.330;2023-02-16T02:04:15;101529.94;;;1.03;100.00
11525;BME280;5819;49.648;8.330;2023-02-16T02:07:06;101535.78;;;0.94;100.00
11525;BME280;5819;49.648;8.330;2023-02-16T02:09:42;101539.00;;;0.82;100.00
11525;BME280;5819;49.648;8.330;2023-02-16T02:12:16;101532.22;;;0.86;100.00
11525;BME280;5819;49.648;8.330;2023-02-16T02:14:47;101536.50;;;0.85;100.00
11525;BME280;5819;49.648;8.330;2023-02-16T02:17:18;101537.34;;;0.86;100.00
11525;BME280;5819;49.648;8.330;2023-02-16T02:19:55;101538.97;;;0.81;100.00
11525;BME280;5819;49.648;8.330;2023-02-16T02:26:34;101536.13;;;0.63;100.00
11525;BME280;5819;49.648;8.330;2023-02-16T02:32:15;101542.03;;;0.59;100.00
11525;BME280;5819;49.648;8.330;2023-02-16T02:34:57;101546.25;;;0.57;100.00
11525;BME280;5819;49.648;8.330;2023-02-16T02:37:33;101541.06;;;0.52;100.00
11525;BME280;5819;49.648;8.330;2023-02-16T02:40:07;101539.44;;;0.57;100.00
11525;BME280;5819;49.648;8.330;2023-02-16T02:42:45;101534.31;;;0.57;100.00
11525;BME280;5819;49.648;8.330;2023-02-16T02:45:17;101531.72;;;0.54;100.00
11525;BME280;5819;49.648;8.330;2023-02-16T02:47:49;101537.69;;;0.55;100.00
11525;BME280;5819;49.648;8.330;2023-02-16T02:50:31;101535.00;;;0.48;100.00
11525;BME280;5819;49.648;8.330;2023-02-16T02:53:03;101523.94;;;0.50;100.00
11525;BME280;5819;49.648;8.330;2023-02-16T02:55:35;101521.22;;;0.40;100.00
11525;BME280;5819;49.648;8.330;2023-02-16T02:58:24;101529.97;;;0.52;100.00
11525;BME280;5819;49.648;8.330;2023-02-16T03:01:11;101532.22;;;0.35;100.00
11525;BME280;5819;49.648;8.330;2023-02-16T03:03:43;101525.53;;;0.43;100.00
11525;BME280;5819;49.648;8.330;2023-02-16T03:06:14;101533.97;;;0.37;100.00
11525;BME280;5819;49.648;8.330;2023-02-16T03:08:48;101532.00;;;0.24;100.00
11525;BME280;5819;49.648;8.330;2023-02-16T03:11:18;101527.75;;;0.23;100.00
11525;BME280;5819;49.648;8.330;2023-02-16T03:14:10;101538.00;;;0.25;100.00
11525;BME280;5819;49.648;8.330;2023-02-16T03:16:42;101537.97;;;0.23;100.00
11525;BME280;5819;49.648;8.330;2023-02-16T03:19:12;101537.91;;;0.20;100.00
11525;BME280;5819;49.648;8.330;2023-02-16T03:22:00;101544.09;;;0.33;100.00
11525;BME280;5819;49.648;8.330;2023-02-16T03:24:46;101539.69;;;0.24;100.00
11525;BME280;5819;49.648;8.330;2023-02-16T03:27:34;101533.91;;;0.34;100.00
11525;BME280;5819;49.648;8.330;2023-02-16T03:30:22;101530.72;;;0.46;100.00
11525;BME280;5819;49.648;8.330;2023-02-16T03:32:52;101539.91;;;0.36;100.00
11525;BME280;5819;49.648;8.330;2023-02-16T03:35:21;101540.72;;;0.34;100.00
11525;BME280;5819;49.648;8.330;2023-02-16T03:37:49;101536.28;;;0.24;100.00
11525;BME280;5819;49.648;8.330;2023-02-16T03:40:17;101538.16;;;0.34;100.00
11525;BME280;5819;49.648;8.330;2023-02-16T03:42:56;101531.09;;;0.21;100.00
11525;BME280;5819;49.648;8.330;2023-02-16T03:45:26;101543.88;;;0.21;100.00
11525;BME280;5819;49.648;8.330;2023-02-16T03:47:55;101541.53;;;0.31;100.00
11525;BME280;5819;49.648;8.330;2023-02-16T03:50:23;101546.47;;;0.22;100.00
11525;BME280;5819;49.648;8.330;2023-02-16T03:52:53;101544.47;;;0.06;100.00
11525;BME280;5819;49.648;8.330;2023-02-16T03:55:34;101545.09;;;0.39;100.00
11525;BME280;5819;49.648;8.330;2023-02-16T03:58:03;101548.13;;;0.19;100.00
11525;BME280;5819;49.648;8.330;2023-02-16T04:00:33;101549.81;;;0.18;100.00
11525;BME280;5819;49.648;8.330;2023-02-16T04:03:01;101549.63;;;0.08;100.00
11525;BME280;5819;49.648;8.330;2023-02-16T04:05:29;101548.75;;;0.09;100.00
11525;BME280;5819;49.648;8.330;2023-02-16T04:07:57;101554.66;;;0.05;100.00
11525;BME280;5819;49.648;8.330;2023-02-16T04:10:26;101550.44;;;0.07;100.00
11525;BME280;5819;49.648;8.330;2023-02-16T04:12:54;101539.59;;;0.18;100.00
11525;BME280;5819;49.648;8.330;2023-02-16T04:15:23;101543.97;;;0.24;100.00
11525;BME280;5819;49.648;8.330;2023-02-16T04:17:54;101539.50;;;0.14;100.00
11525;BME280;5819;49.648;8.330;2023-02-16T04:20:24;101533.50;;;0.13;100.00
11525;BME280;5819;49.648;8.330;2023-02-16T04:22:53;101537.13;;;0.23;100.00
11525;BME280;5819;49.648;8.330;2023-02-16T04:25:21;101546.34;;;0.15;100.00
11525;BME280;5819;49.648;8.330;2023-02-16T04:27:50;101541.19;;;0.12;100.00
11525;BME280;5819;49.648;8.330;2023-02-16T04:30:19;101542.00;;;0.11;100.00
11525;BME280;5819;49.648;8.330;2023-02-16T04:32:48;101553.97;;;0.12;100.00
11525;BME280;5819;49.648;8.330;2023-02-16T04:35:18;101541.28;;;0.18;100.00
11525;BME280;5819;49.648;8.330;2023-02-16T04:37:46;101540.38;;;0.14;100.00
11525;BME280;5819;49.648;8.330;2023-02-16T04:40:15;101544.53;;;0.09;100.00
11525;BME280;5819;49.648;8.330;2023-02-16T04:42:44;101545.28;;;0.04;100.00
11525;BME280;5819;49.648;8.330;2023-02-16T04:45:12;101536.91;;;0.12;100.00
11525;BME280;5819;49.648;8.330;2023-02-16T04:47:41;101543.78;;;0.15;100.00
11525;BME280;5819;49.648;8.330;2023-02-16T04:50:09;101547.91;;;0.07;100.00
11525;BME280;5819;49.648;8.330;2023-02-16T04:52:39;101543.84;;;0.18;100.00
11525;BME280;5819;49.648;8.330;2023-02-16T04:55:07;101544.38;;;0.02;100.00
11525;BME280;5819;49.648;8.330;2023-02-16T04:57:36;101541.19;;;0.12;100.00
11525;BME280;5819;49.648;8.330;2023-02-16T05:00:04;101547.13;;;0.11;100.00
11525;BME280;5819;49.648;8.330;2023-02-16T05:02:32;101542.59;;;-0.03;100.00
11525;BME280;5819;49.648;8.330;2023-02-16T05:05:00;101535.84;;;0.01;100.00
11525;BME280;5819;49.648;8.330;2023-02-16T05:07:28;101538.13;;;-0.13;100.00
11525;BME280;5819;49.648;8.330;2023-02-16T05:09:57;101535.16;;;0.10;100.00
11525;BME280;5819;49.648;8.330;2023-02-16T05:12:25;101523.41;;;0.19;100.00
11525;BME280;5819;49.648;8.330;2023-02-16T05:15:07;101527.53;;;0.11;100.00
11525;BME280;5819;49.648;8.330;2023-02-16T05:17:35;101536.66;;;-0.02;100.00
11525;BME280;5819;49.648;8.330;2023-02-16T05:20:04;101531.63;;;0.05;100.00
11525;BME280;5819;49.648;8.330;2023-02-16T05:22:32;101537.66;;;0.08;100.00
11525;BME280;5819;49.648;8.330;2023-02-16T05:25:02;101543.69;;;0.10;100.00
11525;BME280;5819;49.648;8.330;2023-02-16T05:27:31;101542.72;;;0.04;100.00
11525;BME280;5819;49.648;8.330;2023-02-16T05:29:59;101542.72;;;0.04;100.00
11525;BME280;5819;49.648;8.330;2023-02-16T05:32:27;101546.13;;;0.04;100.00
11525;BME280;5819;49.648;8.330;2023-02-16T05:34:56;101549.44;;;-0.02;100.00
11525;BME280;5819;49.648;8.330;2023-02-16T05:37:23;101552.81;;;-0.04;100.00
11525;BME280;5819;49.648;8.330;2023-02-16T05:39:52;101553.59;;;-0.08;100.00
11525;BME280;5819;49.648;8.330;2023-02-16T05:42:21;101559.63;;;-0.03;100.00
11525;BME280;5819;49.648;8.330;2023-02-16T05:44:49;101568.72;;;-0.16;100.00
11525;BME280;5819;49.648;8.330;2023-02-16T05:47:16;101564.38;;;-0.20;100.00
11525;BME280;5819;49.648;8.330;2023-02-16T05:49:44;101554.22;;;-0.18;100.00
11525;BME280;5819;49.648;8.330;2023-02-16T05:52:12;101550.31;;;-0.01;100.00
11525;BME280;5819;49.648;8.330;2023-02-16T05:54:40;101552.13;;;0.06;100.00
11525;BME280;5819;49.648;8.330;2023-02-16T05:57:08;101554.59;;;0.00;100.00
11525;BME280;5819;49.648;8.330;2023-02-16T05:59:37;101553.75;;;0.01;100.00
11525;BME280;5819;49.648;8.330;2023-02-16T06:02:05;101553.00;;;0.07;100.00
11525;BME280;5819;49.648;8.330;2023-02-16T06:04:35;101567.28;;;-0.03;100.00
11525;BME280;5819;49.648;8.330;2023-02-16T06:07:02;101564.53;;;-0.14;100.00
11525;BME280;5819;49.648;8.330;2023-02-16T06:09:30;101557.94;;;-0.03;100.00
11525;BME280;5819;49.648;8.330;2023-02-16T06:11:58;101565.59;;;-0.04;100.00
11525;BME280;5819;49.648;8.330;2023-02-16T06:14:26;101567.38;;;0.00;100.00
11525;BME280;5819;49.648;8.330;2023-02-16T06:16:56;101577.44;;;-0.08;100.00
11525;BME280;5819;49.648;8.330;2023-02-16T06:19:24;101573.41;;;0.04;100.00
11525;BME280;5819;49.648;8.330;2023-02-16T06:21:52;101580.06;;;-0.05;100.00
11525;BME280;5819;49.648;8.330;2023-02-16T06:24:20;101585.25;;;-0.02;100.00
11525;BME280;5819;49.648;8.330;2023-02-16T06:26:48;101589.22;;;-0.14;100.00
11525;BME280;5819;49.648;8.330;2023-02-16T06:29:16;101577.00;;;0.12;100.00
11525;BME280;5819;49.648;8.330;2023-02-16T06:31:44;101585.19;;;-0.03;100.00
11525;BME280;5819;49.648;8.330;2023-02-16T06:34:13;101583.66;;;0.04;100.00
11525;BME280;5819;49.648;8.330;2023-02-16T06:36:41;101585.88;;;-0.12;100.00
11525;BME280;5819;49.648;8.330;2023-02-16T06:39:09;101582.88;;;0.08;100.00
11525;BME280;5819;49.648;8.330;2023-02-16T06:41:37;101598.03;;;-0.02;100.00
11525;BME280;5819;49.648;8.330;2023-02-16T06:44:07;101598.78;;;-0.06;100.00
11525;BME280;5819;49.648;8.330;2023-02-16T06:46:36;101595.28;;;-0.11;100.00
11525;BME280;5819;49.648;8.330;2023-02-16T06:49:04;101600.38;;;-0.11;100.00
11525;BME280;5819;49.648;8.330;2023-02-16T06:51:33;101608.25;;;-0.02;100.00
11525;BME280;5819;49.648;8.330;2023-02-16T06:54:01;101611.63;;;-0.03;100.00
11525;BME280;5819;49.648;8.330;2023-02-16T06:56:28;101598.09;;;0.02;100.00
11525;BME280;5819;49.648;8.330;2023-02-16T06:58:57;101604.94;;;0.03;100.00
11525;BME280;5819;49.648;8.330;2023-02-16T07:01:25;101605.06;;;0.10;100.00
11525;BME280;5819;49.648;8.330;2023-02-16T07:03:55;101601.59;;;0.07;100.00
11525;BME280;5819;49.648;8.330;2023-02-16T07:06:25;101607.38;;;-0.02;100.00
11525;BME280;5819;49.648;8.330;2023-02-16T07:08:55;101607.38;;;-0.02;100.00
11525;BME280;5819;49.648;8.330;2023-02-16T07:11:23;101604.88;;;-0.01;100.00
11525;BME280;5819;49.648;8.330;2023-02-16T07:13:51;101601.16;;;-0.15;100.00
11525;BME280;5819;49.648;8.330;2023-02-16T07:16:18;101609.72;;;-0.13;100.00
11525;BME280;5819;49.648;8.330;2023-02-16T07:18:46;101597.88;;;-0.08;100.00
11525;BME280;5819;49.648;8.330;2023-02-16T07:21:14;101600.72;;;0.06;100.00
11525;BME280;5819;49.648;8.330;2023-02-16T07:23:42;101593.84;;;0.02;100.00
11525;BME280;5819;49.648;8.330;2023-02-16T07:26:13;101597.25;;;0.04;100.00
11525;BME280;5819;49.648;8.330;2023-02-16T07:28:41;101586.34;;;0.11;100.00
11525;BME280;5819;49.648;8.330;2023-02-16T07:31:10;101582.84;;;0.06;100.00
11525;BME280;5819;49.648;8.330;2023-02-16T07:33:39;101582.22;;;0.18;100.00
11525;BME280;5819;49.648;8.330;2023-02-16T07:36:08;101579.88;;;0.30;100.00
11525;BME280;5819;49.648;8.330;2023-02-16T07:38:37;101583.13;;;0.21;100.00
11525;BME280;5819;49.648;8.330;2023-02-16T07:41:07;101581.56;;;0.29;100.00
11525;BME280;5819;49.648;8.330;2023-02-16T07:43:38;101586.66;;;0.26;100.00
11525;BME280;5819;49.648;8.330;2023-02-16T07:46:08;101595.09;;;0.22;100.00
11525;BME280;5819;49.648;8.330;2023-02-16T07:48:35;101608.06;;;0.31;100.00
11525;BME280;5819;49.648;8.330;2023-02-16T07:51:03;101606.47;;;0.38;100.00
11525;BME280;5819;49.648;8.330;2023-02-16T07:53:32;101605.63;;;0.37;100.00
11525;BME280;5819;49.648;8.330;2023-02-16T07:56:00;101597.94;;;0.36;100.00
11525;BME280;5819;49.648;8.330;2023-02-16T07:58:28;101591.22;;;0.42;100.00
11525;BME280;5819;49.648;8.330;2023-02-16T08:01:06;101594.81;;;0.52;100.00
11525;BME280;5819;49.648;8.330;2023-02-16T08:03:34;101608.22;;;0.40;100.00
11525;BME280;5819;49.648;8.330;2023-02-16T08:06:03;101606.56;;;0.42;100.00
11525;BME280;5819;49.648;8.330;2023-02-16T08:08:31;101609.88;;;0.37;100.00
11525;BME280;5819;49.648;8.330;2023-02-16T08:10:59;101605.25;;;0.63;100.00
11525;BME280;5819;49.648;8.330;2023-02-16T08:13:27;101605.19;;;0.60;100.00
11525;BME280;5819;49.648;8.330;2023-02-16T08:15:56;101597.44;;;0.55;100.00
11525;BME280;5819;49.648;8.330;2023-02-16T08:18:25;101595.91;;;0.66;100.00
11525;BME280;5819;49.648;8.330;2023-02-16T08:20:53;101600.34;;;0.75;100.00
11525;BME280;5819;49.648;8.330;2023-02-16T08:23:30;101594.22;;;0.68;100.00
11525;BME280;5819;49.648;8.330;2023-02-16T08:25:57;101595.09;;;0.69;100.00
11525;BME280;5819;49.648;8.330;2023-02-16T08:28:26;101591.84;;;0.77;100.00
11525;BME280;5819;49.648;8.330;2023-02-16T08:30:55;101588.41;;;0.77;100.00
11525;BME280;5819;49.648;8.330;2023-02-16T08:33:24;101591.97;;;0.83;100.00
11525;BME280;5819;49.648;8.330;2023-02-16T08:35:52;101595.31;;;0.81;100.00
11525;BME280;5819;49.648;8.330;2023-02-16T08:38:20;101592.75;;;0.79;100.00
11525;BME280;5819;49.648;8.330;2023-02-16T08:40:49;101592.78;;;0.82;100.00
11525;BME280;5819;49.648;8.330;2023-02-16T08:43:17;101591.00;;;0.78;100.00
11525;BME280;5819;49.648;8.330;2023-02-16T08:45:45;101587.78;;;0.90;100.00
11525;BME280;5819;49.648;8.330;2023-02-16T08:48:13;101586.84;;;0.85;100.00
11525;BME280;5819;49.648;8.330;2023-02-16T08:50:44;101602.22;;;0.85;100.00
11525;BME280;5819;49.648;8.330;2023-02-16T08:53:18;101605.53;;;0.79;100.00
11525;BME280;5819;49.648;8.330;2023-02-16T08:55:50;101599.63;;;0.83;100.00
11525;BME280;5819;49.648;8.330;2023-02-16T08:58:18;101597.00;;;0.80;100.00
11525;BME280;5819;49.648;8.330;2023-02-16T09:00:46;101601.50;;;0.93;100.00
11525;BME280;5819;49.648;8.330;2023-02-16T09:03:15;101596.38;;;0.93;100.00
11525;BME280;5819;49.648;8.330;2023-02-16T09:05:46;101599.94;;;1.02;100.00
11525;BME280;5819;49.648;8.330;2023-02-16T09:08:14;101603.44;;;1.07;100.00
11525;BME280;5819;49.648;8.330;2023-02-16T09:10:42;101602.66;;;1.11;100.00
11525;BME280;5819;49.648;8.330;2023-02-16T09:13:10;101606.03;;;1.10;100.00
11525;BME280;5819;49.648;8.330;2023-02-16T09:15:40;101603.41;;;1.05;100.00
11525;BME280;5819;49.648;8.330;2023-02-16T09:18:09;101605.22;;;1.11;100.00
11525;BME280;5819;49.648;8.330;2023-02-16T09:20:38;101609.72;;;1.25;100.00
11525;BME280;5819;49.648;8.330;2023-02-16T09:23:09;101616.59;;;1.28;100.00
11525;BME280;5819;49.648;8.330;2023-02-16T09:25:38;101605.44;;;1.26;100.00
11525;BME280;5819;49.648;8.330;2023-02-16T09:28:07;101602.13;;;1.31;100.00
11525;BME280;5819;49.648;8.330;2023-02-16T09:30:37;101603.06;;;1.38;100.00
11525;BME280;5819;49.648;8.330;2023-02-16T09:33:05;101606.50;;;1.38;100.00
11525;BME280;5819;49.648;8.330;2023-02-16T09:35:33;101596.31;;;1.45;100.00
11525;BME280;5819;49.648;8.330;2023-02-16T09:38:01;101609.94;;;1.40;100.00
11525;BME280;5819;49.648;8.330;2023-02-16T09:40:30;101602.44;;;1.53;100.00
11525;BME280;5819;49.648;8.330;2023-02-16T09:43:05;101597.47;;;1.63;100.00
11525;BME280;5819;49.648;8.330;2023-02-16T09:45:40;101600.97;;;1.68;100.00
11525;BME280;5819;49.648;8.330;2023-02-16T09:48:11;101594.28;;;1.79;100.00
11525;BME280;5819;49.648;8.330;2023-02-16T09:50:48;101595.91;;;1.74;100.00
11525;BME280;5819;49.648;8.330;2023-02-16T09:53:22;101599.25;;;1.69;100.00
11525;BME280;5819;49.648;8.330;2023-02-16T09:55:56;101594.97;;;1.69;100.00
11525;BME280;5819;49.648;8.330;2023-02-16T09:58:34;101595.13;;;1.81;100.00
11525;BME280;5819;49.648;8.330;2023-02-16T10:01:10;101590.16;;;1.94;100.00
11525;BME280;5819;49.648;8.330;2023-02-16T10:03:51;101596.16;;;1.93;100.00
11525;BME280;5819;49.648;8.330;2023-02-16T10:06:35;101597.13;;;2.02;100.00
11525;BME280;5819;49.648;8.330;2023-02-16T10:09:10;101592.81;;;2.01;100.00
11525;BME280;5819;49.648;8.330;2023-02-16T10:11:45;101586.97;;;2.11;100.00
11525;BME280;5819;49.648;8.330;2023-02-16T10:14:22;101591.97;;;2.01;100.00
11525;BME280;5819;49.648;8.330;2023-02-16T10:16:53;101595.75;;;2.33;100.00
11525;BME280;5819;49.648;8.330;2023-02-16T10:19:27;101596.75;;;2.43;100.00
11525;BME280;5819;49.648;8.330;2023-02-16T10:21:59;101587.56;;;2.64;100.00
11525;BME280;5819;49.648;8.330;2023-02-16T10:24:30;101580.84;;;2.78;100.00
11525;BME280;5819;49.648;8.330;2023-02-16T10:27:10;101574.75;;;2.70;100.00
11525;BME280;5819;49.648;8.330;2023-02-16T10:29:40;101586.94;;;2.91;100.00
11525;BME280;5819;49.648;8.330;2023-02-16T10:32:14;101576.88;;;3.21;100.00
11525;BME280;5819;49.648;8.330;2023-02-16T10:34:50;101566.81;;;3.53;100.00
11525;BME280;5819;49.648;8.330;2023-02-16T10:37:31;101574.31;;;3.20;100.00
11525;BME280;5819;49.648;8.330;2023-02-16T10:40:17;101577.50;;;2.90;100.00
11525;BME280;5819;49.648;8.330;2023-02-16T10:42:54;101568.03;;;2.86;100.00
11525;BME280;5819;49.648;8.330;2023-02-16T10:45:29;101568.19;;;3.00;100.00
11525;BME280;5819;49.648;8.330;2023-02-16T10:47:59;101555.50;;;3.25;100.00
11525;BME280;5819;49.648;8.330;2023-02-16T10:50:30;101545.41;;;3.53;100.00
11525;BME280;5819;49.648;8.330;2023-02-16T10:53:00;101536.13;;;3.85;100.00
11525;BME280;5819;49.648;8.330;2023-02-16T10:55:30;101543.81;;;3.84;100.00
11525;BME280;5819;49.648;8.330;2023-02-16T10:58:01;101549.72;;;3.63;100.00
11525;BME280;5819;49.648;8.330;2023-02-16T11:00:38;101539.41;;;3.58;100.00
11525;BME280;5819;49.648;8.330;2023-02-16T11:03:12;101543.72;;;3.61;100.00
11525;BME280;5819;49.648;8.330;2023-02-16T11:05:41;101534.38;;;3.81;100.00
11525;BME280;5819;49.648;8.330;2023-02-16T11:08:09;101531.84;;;3.92;100.00
11525;BME280;5819;49.648;8.330;2023-02-16T11:10:43;101524.16;;;4.04;100.00
11525;BME280;5819;49.648;8.330;2023-02-16T11:13:23;101527.69;;;4.51;100.00
11525;BME280;5819;49.648;8.330;2023-02-16T11:15:54;101532.84;;;4.44;100.00
11525;BME280;5819;49.648;8.330;2023-02-16T11:18:34;101519.97;;;4.63;100.00
11525;BME280;5819;49.648;8.330;2023-02-16T11:21:04;101515.69;;;4.78;100.00
11525;BME280;5819;49.648;8.330;2023-02-16T11:23:34;101519.97;;;4.45;100.00
11525;BME280;5819;49.648;8.330;2023-02-16T11:26:04;101506.22;;;4.45;100.00
11525;BME280;5819;49.648;8.330;2023-02-16T11:28:35;101499.38;;;4.68;100.00
11525;BME280;5819;49.648;8.330;2023-02-16T11:31:11;101496.78;;;4.97;100.00
11525;BME280;5819;49.648;8.330;2023-02-16T11:33:41;101477.84;;;5.16;100.00
11525;BME280;5819;49.648;8.330;2023-02-16T11:36:25;101472.66;;;5.14;100.00
11525;BME280;5819;49.648;8.330;2023-02-16T11:38:56;101483.00;;;5.16;100.00
11525;BME280;5819;49.648;8.330;2023-02-16T11:41:25;101482.16;;;4.99;100.00
11525;BME280;5819;49.648;8.330;2023-02-16T11:43:56;101485.59;;;4.86;100.00
11525;BME280;5819;49.648;8.330;2023-02-16T11:46:25;101480.44;;;4.78;100.00
11525;BME280;5819;49.648;8.330;2023-02-16T11:48:53;101477.88;;;4.89;100.00
11525;BME280;5819;49.648;8.330;2023-02-16T11:51:33;101471.00;;;4.95;100.00
11525;BME280;5819;49.648;8.330;2023-02-16T11:54:04;101470.13;;;5.07;100.00
11525;BME280;5819;49.648;8.330;2023-02-16T11:56:34;101471.84;;;5.09;100.00
11525;BME280;5819;49.648;8.330;2023-02-16T11:59:12;101469.25;;;5.17;100.00
11525;BME280;5819;49.648;8.330;2023-02-16T12:01:58;101459.78;;;5.21;100.00
11525;BME280;5819;49.648;8.330;2023-02-16T12:04:40;101458.91;;;5.20;100.00
11525;BME280;5819;49.648;8.330;2023-02-16T12:07:20;101459.78;;;5.25;100.00
11525;BME280;5819;49.648;8.330;2023-02-16T12:10:00;101460.59;;;5.32;100.00
11525;BME280;5819;49.648;8.330;2023-02-16T12:12:34;101452.00;;;5.33;100.00
11525;BME280;5819;49.648;8.330;2023-02-16T12:15:18;101447.69;;;5.36;100.00
11525;BME280;5819;49.648;8.330;2023-02-16T12:17:57;101447.72;;;5.33;100.00
11525;BME280;5819;49.648;8.330;2023-02-16T12:20:36;101451.94;;;5.46;100.00
11525;BME280;5819;49.648;8.330;2023-02-16T12:23:19;101441.44;;;5.92;100.00
11525;BME280;5819;49.648;8.330;2023-02-16T12:26:00;101430.06;;;6.16;100.00
11525;BME280;5819;49.648;8.330;2023-02-16T12:28:38;101430.88;;;6.24;100.00
11525;BME280;5819;49.648;8.330;2023-02-16T12:31:18;101429.19;;;6.20;100.00
11525;BME280;5819;49.648;8.330;2023-02-16T12:33:59;101432.81;;;5.90;100.00
11525;BME280;5819;49.648;8.330;2023-02-16T12:36:47;101431.13;;;5.89;100.00
11525;BME280;5819;49.648;8.330;2023-02-16T12:39:24;101428.53;;;5.89;100.00
11525;BME280;5819;49.648;8.330;2023-02-16T12:42:14;101420.66;;;6.07;100.00
11525;BME280;5819;49.648;8.330;2023-02-16T12:44:49;101421.44;;;6.18;100.00
11525;BME280;5819;49.648;8.330;2023-02-16T12:47:23;101425.84;;;6.07;100.00
11525;BME280;5819;49.648;8.330;2023-02-16T12:49:55;101412.13;;;6.00;100.00
11525;BME280;5819;49.648;8.330;2023-02-16T12:52:34;101414.66;;;6.02;100.00
11525;BME280;5819;49.648;8.330;2023-02-16T12:55:16;101406.91;;;6.03;100.00
11525;BME280;5819;49.648;8.330;2023-02-16T12:57:51;101402.47;;;6.22;100.00
11525;BME280;5819;49.648;8.330;2023-02-16T13:00:36;101397.16;;;6.40;
11525;BME280;5819;49.648;8.330;2023-02-16T13:03:21;101381.41;;;6.68;100.00
11525;BME280;5819;49.648;8.330;2023-02-16T13:05:57;101383.03;;;6.78;100.00
11525;BME280;5819;49.648;8.330;2023-02-16T13:08:34;101380.53;;;6.69;100.00
11525;BME280;5819;49.648;8.330;2023-02-16T13:11:10;101380.53;;;6.69;100.00
11525;BME280;5819;49.648;8.330;2023-02-16T13:13:42;101378.09;;;6.52;100.00
11525;BME280;5819;49.648;8.330;2023-02-16T13:16:15;101373.91;;;6.40;100.00
11525;BME280;5819;49.648;8.330;2023-02-16T13:18:57;101386.91;;;6.31;100.00
11525;BME280;5819;49.648;8.330;2023-02-16T13:21:42;101380.00;;;6.30;100.00
11525;BME280;5819;49.648;8.330;2023-02-16T13:24:42;101381.84;;;6.19;100.00
11525;BME280;5819;49.648;8.330;2023-02-16T13:27:21;101376.63;;;6.24;100.00
11525;BME280;5819;49.648;8.330;2023-02-16T13:33:15;101358.59;;;6.19;100.00
11525;BME280;5819;49.648;8.330;2023-02-16T13:36:15;101348.25;;;6.21;100.00
11525;BME280;5819;49.648;8.330;2023-02-16T13:39:15;101349.09;;;6.21;100.00